METAR Data
IDs: Format: Raw Decoded Include TAF

Data at: 0629 UTC 19 Aug 2019

KMVL 190554Z AUTO 00000KT 10SM CLR 18/17 A2990 RMK AO2 SLP122 60001 T01830172 10217 20183 58014
KMVL 190454Z AUTO 22003KT 10SM FEW065 FEW090 BKN110 19/18 A2991 RMK AO2 SLP127 T01890178 402780167
KMVL 190354Z AUTO 00000KT 10SM FEW040 SCT055 BKN075 19/18 A2992 RMK AO2 RAB16E30 SLP131 P0001 T01940183
KMVL 190254Z AUTO 20003KT 10SM SCT065 BKN080 BKN095 20/18 A2994 RMK AO2 SLP136 T02000183 58005
KMVL 190154Z AUTO 20004KT 10SM FEW065 BKN100 20/18 A2995 RMK AO2 SLP141 T02000183
KMVL 190054Z AUTO 00000KT 10SM SCT080 21/19 A2995 RMK AO2 SLP140 T02060189
KMVL 182354Z AUTO 00000KT 10SM FEW080 22/19 A2995 RMK AO2 SLP141 T02170194 10278 20217 58006
KMVL 182254Z AUTO 18003KT 10SM SCT085 SCT120 26/19 A2996 RMK AO2 SLP143 T02560189
KMVL 182154Z AUTO 20004KT 10SM OVC080 26/17 A2997 RMK AO2 SLP148 T02610167
KMVL 182054Z AUTO 22006KT 10SM CLR 28/17 A2997 RMK AO2 SLP147 T02780167 58009
KMVL 181954Z AUTO 22007KT 10SM CLR 28/17 A2997 RMK AO2 SLP148 T02780172
KMVL 181854Z AUTO 18006KT 10SM CLR 27/18 A3000 RMK AO2 SLP155 T02720178
KMVL 181754Z AUTO 17006KT 10SM CLR 27/18 A3000 RMK AO2 SLP156 T02670178 10267 20178 55013
KMVL 181654Z AUTO 00000KT 10SM FEW030 25/18 A2999 RMK AO2 SLP154 T02500183
KMVL 181554Z AUTO 13005KT 10SM FEW048 24/18 A3002 RMK AO2 SLP163 T02440183
KMVL 181454Z AUTO 00000KT 10SM FEW048 23/18 A3004 RMK AO2 SLP170 T02280183 58002
KMVL 181404Z AUTO 00000KT 10SM SCT007 BKN048 21/18 A3005 RMK AO2 T02110178
KMVL 181354Z AUTO VRB03KT 10SM BKN007 20/17 A3005 RMK AO2 SLP173 T02000172
KMVL 181303Z AUTO 19004KT 10SM OVC006 19/17 A3005 RMK AO2 CIG 004V009 T01890172 $
KMVL 181254Z AUTO 21004KT 10SM OVC005 18/17 A3004 RMK AO2 CIG 003V010 SLP173 T01830172 $
KMVL 181247Z AUTO VRB03KT 10SM OVC005 19/17 A3005 RMK AO2 T01890172 $
KMVL 181154Z AUTO 16003KT 10SM OVC003 18/17 A3004 RMK AO2 SLP173 70008 T01780167 10178 20167 53009 $
KMVL 181054Z AUTO 00000KT 10SM OVC002 17/17 A3001 RMK AO2 SLP163 T01720167 $
KMVL 181047Z AUTO 00000KT 3SM BR OVC002 17/17 A3002 RMK AO2 T01720167 $
KMVL 181041Z AUTO 00000KT 1 1/4SM BR OVC003 17/17 A3002 RMK AO2 T01720167 $
KMVL 181027Z AUTO 00000KT 3/4SM BR OVC002 17/17 A3001 RMK AO2 T01720167 $
KMVL 181003Z AUTO 00000KT 1 3/4SM BR OVC002 17/17 A3000 RMK AO2 T01720167 $
KMVL 180954Z AUTO 00000KT 5SM BR OVC003 17/17 A3001 RMK AO2 SLP159 T01720167 $
KMVL 180906Z AUTO 00000KT 10SM OVC004 18/17 A3002 RMK AO2 T01780167 $
KMVL 180854Z AUTO 00000KT 10SM BKN005 OVC010 17/17 A3002 RMK AO2 CIG 003V008 SLP162 T01720167 53005 $
KMVL 180847Z AUTO 00000KT 10SM BKN005 OVC010 17/17 A3001 RMK AO2 T01720167 $
KMVL 180754Z AUTO 18004KT 10SM OVC007 18/17 A3000 RMK AO2 SLP158 T01780172 $
KMVL 180721Z AUTO 18003KT 10SM BKN008 18/17 A3000 RMK AO2 T01780167 $
KMVL 180654Z AUTO 18005KT 10SM BKN010 17/17 A3000 RMK AO2 SLP157 T01720167 $
KMVL 180649Z AUTO 18004KT 10SM BKN010 17/17 A3000 RMK AO2 $
KMVL 180554Z AUTO 17004KT 10SM FEW005 SCT010 BKN050 18/17 A3000 RMK AO2 SLP155 60001 T01780167 10206 20178 50002 $
KMVL 180522Z AUTO 14005KT 10SM FEW010 BKN055 18/17 A3000 RMK AO2 T01830172 $
KMVL 180509Z AUTO 12003KT 10SM SCT002 BKN009 OVC055 18/17 A3000 RMK AO2 T01830172 $
KMVL 180454Z AUTO 19004KT 9SM BKN003 BKN060 18/17 A3000 RMK AO2 SLP156 T01780172 402830178 $
KMVL 180445Z AUTO 21004KT 10SM BKN003 BKN060 18/17 A3000 RMK AO2 T01780172 $
KMVL 180428Z AUTO 19004KT 10SM FEW004 SCT065 BKN085 18/17 A2999 RMK AO2 T01780172 $
KMVL 180354Z AUTO 17003KT 10SM SCT065 BKN085 18/17 A2999 RMK AO2 SLP153 T01830172 $
KMVL 180254Z AUTO 18004KT 10SM SCT085 OVC110 18/18 A2999 RMK AO2 SLP153 60001 T01830178 50011 $
KMVL 180154Z AUTO 18003KT 10SM FEW110 19/18 A2999 RMK AO2 SLP155 T01890178 $
KMVL 180054Z AUTO 00000KT 10SM CLR 19/18 A2998 RMK AO2 RAE34 SLP150 P0001 T01940183 $
KMVL 172354Z AUTO 00000KT 10SM -RA OVC110 21/18 A2996 RMK AO2 LTG DSNT E AND SE SLP143 P0005 60007 T02060183 10283 20206 50000 $
KMVL 172254Z AUTO 18004KT 8SM -RA OVC120 22/21 A2997 RMK AO2 LTG DSNT E-SW RAB03 SLP145 P0002 T02220206 $
KMVL 172154Z AUTO 00000KT 10SM CLR 25/19 A2996 RMK AO2 LTG DSNT SE SLP141 T02500194 $
KMVL 172054Z AUTO 23003KT 10SM CLR 27/18 A2995 RMK AO2 LTG DSNT N AND NW SLP141 T02670183 56013 $
KMVL 171954Z AUTO 21008KT 10SM CLR 27/17 A2997 RMK AO2 SLP145 T02670172 $
KMVL 171854Z AUTO 21007KT 10SM CLR 28/18 A2997 RMK AO2 SLP146 T02780183 $